Time;durP1;ratioP1;P1;durP2;ratioP2;P2;SDS_P1;SDS_P2;PMS_P1;PMS_P2;Temp;Humidity;BMP_temperature;BMP_pressure;BME280_temperature;BME280_humidity;BME280_pressure;Samples;Min_cycle;Max_cycle;Signal;HPM_P1;HPM_P2
2024/04/02 00:00:36;;;;;;;1.08;0.32;;;;;;;6.76;100.00;97843.09;4919768;29;20092;-79
2024/04/02 00:03:06;;;;;;;0.52;0.40;;;;;;;6.82;100.00;97860.28;4925663;29;20068;-79
2024/04/02 00:05:31;;;;;;;;;;;;;;;6.83;100.00;97867.31;4911373;29;20102;-80
2024/04/02 00:07:56;;;;;;;1.80;0.40;;;;;;;6.79;100.00;97858.00;4926890;29;19943;-78
2024/04/02 00:10:22;;;;;;;1.08;0.40;;;;;;;6.79;100.00;97868.75;4920817;29;20058;-78
2024/04/02 00:12:47;;;;;;;0.65;0.38;;;;;;;6.84;100.00;97881.56;4909829;29;20211;-78
2024/04/02 00:15:13;;;;;;;0.43;0.30;;;;;;;6.82;100.00;97892.53;4920892;29;20201;-78
2024/04/02 00:17:38;;;;;;;0.35;0.30;;;;;;;6.74;100.00;97877.41;4926708;29;20028;-79
2024/04/02 00:20:04;;;;;;;0.40;0.30;;;;;;;6.84;100.00;97897.69;4925759;29;20059;-79
2024/04/02 00:22:29;;;;;;;0.50;0.20;;;;;;;6.97;100.00;97897.78;4924916;29;20122;-79
2024/04/02 00:24:55;;;;;;;2.17;0.40;;;;;;;7.09;100.00;97898.81;4927281;29;20087;-78
2024/04/02 00:27:20;;;;;;;0.65;0.30;;;;;;;7.27;100.00;97897.41;4924968;29;20330;-78
2024/04/02 00:29:46;;;;;;;0.75;0.30;;;;;;;7.35;100.00;97889.13;4909551;29;20031;-79
2024/04/02 00:32:11;;;;;;;0.90;0.35;;;;;;;7.42;100.00;97881.91;4905378;29;20267;-78
2024/04/02 00:34:36;;;;;;;1.08;0.45;;;;;;;7.52;100.00;97890.41;4912601;29;20099;-79
2024/04/02 00:37:01;;;;;;;0.95;0.47;;;;;;;7.58;100.00;97892.25;4910873;29;20028;-79
2024/04/02 00:39:27;;;;;;;1.35;0.50;;;;;;;7.65;100.00;97903.88;4909224;29;20218;-78
2024/04/02 00:41:53;;;;;;;1.30;0.40;;;;;;;7.68;100.00;97908.00;4910178;29;20067;-78
2024/04/02 00:44:19;;;;;;;0.20;0.20;;;;;;;7.75;100.00;97898.06;4930208;29;20028;-79
2024/04/02 00:46:44;;;;;;;0.38;0.20;;;;;;;7.78;100.00;97897.66;4923294;29;20029;-79
2024/04/02 00:49:09;;;;;;;0.35;0.20;;;;;;;7.80;100.00;97898.25;4925427;29;20039;-79
2024/04/02 00:51:35;;;;;;;0.25;0.20;;;;;;;7.81;100.00;97907.19;4907890;29;20031;-80
2024/04/02 00:54:00;;;;;;;6.57;0.43;;;;;;;7.75;100.00;97908.00;4907967;29;20322;-80
2024/04/02 00:56:27;;;;;;;1.63;0.32;;;;;;;7.67;100.00;97907.16;4925874;29;20326;-79
2024/04/02 00:58:53;;;;;;;1.65;0.40;;;;;;;7.63;100.00;97919.41;4908688;29;20012;-79
2024/04/02 01:01:18;;;;;;;0.65;0.32;;;;;;;7.55;100.00;97910.72;4922438;29;20024;-78
2024/04/02 01:03:43;;;;;;;0.30;0.30;;;;;;;7.63;100.00;97930.16;4909414;29;20038;-79
2024/04/02 01:06:09;;;;;;;0.52;0.40;;;;;;;7.31;100.00;97877.97;4915918;29;20212;-79
2024/04/02 01:08:34;;;;;;;0.70;0.30;;;;;;;7.59;100.00;97915.44;4925083;29;20127;-79
2024/04/02 01:10:59;;;;;;;0.75;0.50;;;;;;;7.56;100.00;97915.88;4910770;29;20023;-78
2024/04/02 01:13:25;;;;;;;0.57;0.38;;;;;;;7.47;100.00;97919.81;4915398;29;20069;-79
2024/04/02 01:15:51;;;;;;;1.33;0.40;;;;;;;7.48;100.00;97932.22;4907748;29;20052;-79
2024/04/02 01:18:22;;;;;;;0.20;0.20;;;;;;;7.46;100.00;97936.97;4926209;29;20024;-79
2024/04/02 01:20:47;;;;;;;0.38;0.30;;;;;;;7.52;100.00;97933.47;4905316;29;20054;-79
2024/04/02 01:23:12;;;;;;;1.10;0.50;;;;;;;7.50;100.00;97922.06;4917105;29;20027;-80
2024/04/02 01:25:38;;;;;;;2.22;1.02;;;;;;;7.47;100.00;97938.63;4925060;29;20028;-80
2024/04/02 01:28:03;;;;;;;3.22;0.80;;;;;;;7.44;100.00;97933.63;4929827;29;20023;-80
2024/04/02 01:30:29;;;;;;;0.65;0.45;;;;;;;7.47;100.00;97941.34;4916791;29;20119;-80
2024/04/02 01:32:54;;;;;;;0.77;0.55;;;;;;;7.40;100.00;97935.94;4912689;29;20024;-79
2024/04/02 01:35:19;;;;;;;0.90;0.40;;;;;;;7.35;100.00;97945.66;4929327;29;20024;-80
2024/04/02 01:37:44;;;;;;;0.40;0.40;;;;;;;7.22;100.00;97944.56;4912994;29;20027;-79
2024/04/02 01:40:10;;;;;;;0.60;0.50;;;;;;;7.10;100.00;97924.69;4932870;29;20024;-80
2024/04/02 01:42:36;;;;;;;0.63;0.60;;;;;;;7.15;100.00;97946.44;4931023;29;20116;-80
2024/04/02 01:45:01;;;;;;;0.93;0.50;;;;;;;7.12;100.00;97946.81;4925574;29;20095;-81
2024/04/02 01:47:27;;;;;;;1.40;0.80;;;;;;;7.08;100.00;97953.66;4931292;29;20031;-80
2024/04/02 01:49:52;;;;;;;0.50;0.50;;;;;;;7.07;100.00;97953.84;4910589;29;20199;-79
2024/04/02 01:52:18;;;;;;;0.75;0.50;;;;;;;7.00;100.00;97948.44;4905559;29;20084;-79
2024/04/02 01:54:44;;;;;;;1.02;0.43;;;;;;;7.07;100.00;97957.34;4915847;29;20020;-80
2024/04/02 01:57:09;;;;;;;1.67;0.55;;;;;;;7.11;100.00;97963.19;4913640;29;20051;-80
2024/04/02 01:59:35;;;;;;;1.48;0.43;;;;;;;7.16;100.00;97969.59;4927368;29;20051;-80
2024/04/02 02:02:01;;;;;;;1.40;0.40;;;;;;;7.16;100.00;97968.78;4915105;29;20104;-80
2024/04/02 02:04:26;;;;;;;3.30;0.65;;;;;;;7.15;100.00;97970.66;4929295;29;20023;-80
2024/04/02 02:06:51;;;;;;;1.90;0.88;;;;;;;7.05;100.00;97959.44;4931609;29;20306;-80
2024/04/02 02:09:17;;;;;;;3.40;0.95;;;;;;;7.17;100.00;97979.31;4912349;29;20039;-81
2024/04/02 02:11:42;;;;;;;1.95;0.80;;;;;;;7.23;100.00;97980.38;4915167;29;20020;-80
2024/04/02 02:14:07;;;;;;;2.95;0.80;;;;;;;7.18;100.00;97970.25;4913802;29;20211;-80
2024/04/02 02:16:33;;;;;;;2.58;0.73;;;;;;;7.32;100.00;97978.34;4918984;29;20032;-80
2024/04/02 02:18:58;;;;;;;2.45;0.47;;;;;;;7.31;100.00;97973.97;4918126;29;20023;-80
2024/04/02 02:21:23;;;;;;;0.82;0.40;;;;;;;7.40;100.00;97973.59;4931560;29;20071;-81
2024/04/02 02:23:50;;;;;;;1.08;0.32;;;;;;;7.54;100.00;97990.59;4918355;29;20222;-80
2024/04/02 02:26:17;;;;;;;5.80;0.47;;;;;;;7.56;100.00;97988.53;4930824;29;20251;-80
2024/04/02 02:28:43;;;;;;;3.20;0.35;;;;;;;7.54;100.00;97985.22;4928154;29;20092;-79
2024/04/02 02:31:08;;;;;;;0.85;0.35;;;;;;;7.61;100.00;97983.38;4923058;29;20203;-81
2024/04/02 02:33:33;;;;;;;2.70;0.22;;;;;;;7.58;100.00;97969.50;4913608;29;20039;-79
2024/04/02 02:35:58;;;;;;;1.67;0.30;;;;;;;7.77;100.00;97989.41;4914391;29;20031;-80
2024/04/02 02:38:24;;;;;;;1.65;0.20;;;;;;;7.85;100.00;97994.59;4913209;29;20032;-80
2024/04/02 02:40:49;;;;;;;0.47;0.20;;;;;;;7.73;100.00;97988.16;4911908;29;20027;-80
2024/04/02 02:43:14;;;;;;;0.65;0.30;;;;;;;7.89;100.00;98009.31;4931471;29;20036;-80
2024/04/02 02:45:50;;;;;;;0.70;0.30;;;;;;;7.84;100.00;98001.84;4910868;29;20030;-81
2024/04/02 02:48:15;;;;;;;0.80;0.40;;;;;;;7.81;100.00;97996.06;4927773;29;20323;-80
2024/04/02 02:50:40;;;;;;;0.40;0.30;;;;;;;7.84;100.00;98006.41;4925946;29;20031;-80
2024/04/02 02:53:06;;;;;;;0.40;0.30;;;;;;;7.85;100.00;97999.97;4923514;29;20050;-80
2024/04/02 02:55:31;;;;;;;2.03;0.32;;;;;;;7.90;100.00;98005.56;4910943;29;20028;-79
2024/04/02 02:57:56;;;;;;;0.73;0.30;;;;;;;7.93;100.00;98005.16;4909729;29;20036;-80
2024/04/02 03:00:21;;;;;;;0.45;0.20;;;;;;;7.71;100.00;97984.84;4923329;29;20028;-80
2024/04/02 03:02:47;;;;;;;3.72;0.40;;;;;;;7.86;100.00;98024.03;4913187;29;20323;-79
2024/04/02 03:05:13;;;;;;;1.25;0.30;;;;;;;7.77;100.00;98016.34;4928175;29;20023;-78
2024/04/02 03:07:39;;;;;;;0.93;0.40;;;;;;;7.81;100.00;98026.50;4942844;23;20049;-59
2024/04/02 03:10:04;;;;;;;0.40;0.20;;;;;;;7.75;100.00;98039.94;4985727;28;20030;-59
2024/04/02 03:12:30;;;;;;;1.70;0.30;;;;;;;7.75;100.00;98045.31;4987983;28;20058;-58
2024/04/02 03:14:55;;;;;;;2.05;0.40;;;;;;;7.62;100.00;98033.50;4991812;28;20053;-58
2024/04/02 03:17:21;;;;;;;6.85;1.40;;;;;;;7.63;100.00;98039.72;4959887;28;20094;-58
2024/04/02 03:19:46;;;;;;;1.08;0.45;;;;;;;7.57;100.00;98040.50;4972065;28;20038;-59
2024/04/02 03:22:12;;;;;;;6.80;0.30;;;;;;;7.50;100.00;98042.38;4966471;28;20038;-59
2024/04/02 03:24:37;;;;;;;1.30;0.20;;;;;;;7.49;100.00;98046.06;4975465;28;20030;-58
2024/04/02 03:27:05;;;;;;;2.47;0.32;;;;;;;7.47;100.00;98057.06;4965376;28;20035;-58
2024/04/02 03:29:31;;;;;;;0.75;0.40;;;;;;;7.37;100.00;98030.53;4969857;28;20054;-58
2024/04/02 03:31:56;;;;;;;1.48;0.43;;;;;;;7.40;100.00;98056.19;4968258;28;20031;-59
2024/04/02 03:34:24;;;;;;;1.83;0.50;;;;;;;7.31;100.00;98065.47;4964542;28;20483;-58
2024/04/02 03:36:50;;;;;;;0.63;0.50;;;;;;;7.26;100.00;98058.03;4969241;28;20029;-58
2024/04/02 03:39:15;;;;;;;1.02;0.60;;;;;;;7.07;100.00;98043.41;4971448;28;20027;-58
2024/04/02 03:41:41;;;;;;;3.30;0.52;;;;;;;7.15;100.00;98077.41;4968180;28;20030;-59
2024/04/02 03:44:07;;;;;;;0.63;0.30;;;;;;;7.17;100.00;98065.41;4964482;28;20459;-59
2024/04/02 03:46:32;;;;;;;0.75;0.35;;;;;;;7.12;100.00;98073.25;4966847;28;20034;-59
2024/04/02 03:48:58;;;;;;;1.95;0.50;;;;;;;7.07;100.00;98073.00;4965190;28;20029;-59
2024/04/02 03:51:23;;;;;;;0.55;0.40;;;;;;;6.99;100.00;98063.25;4972707;28;20035;-59
2024/04/02 03:53:49;;;;;;;1.60;0.60;;;;;;;7.09;100.00;98070.13;4963775;28;20035;-59
2024/04/02 03:56:16;;;;;;;0.80;0.63;;;;;;;7.10;100.00;98067.25;4966857;28;20045;-59
2024/04/02 03:58:42;;;;;;;0.88;0.50;;;;;;;6.97;100.00;98067.19;4964241;28;20035;-59
2024/04/02 04:01:09;;;;;;;0.80;0.30;;;;;;;6.83;100.00;98076.19;4969105;28;20066;-59
2024/04/02 04:03:35;;;;;;;3.13;0.40;;;;;;;6.79;100.00;98076.59;4963348;28;20030;-59
2024/04/02 04:06:02;;;;;;;0.75;0.30;;;;;;;6.76;100.00;98070.78;4968841;28;20030;-60
2024/04/02 04:08:30;;;;;;;4.20;0.40;;;;;;;6.80;100.00;98080.09;4961131;28;20023;-60
2024/04/02 04:10:55;;;;;;;1.13;0.40;;;;;;;6.88;100.00;98079.13;4966153;28;20037;-60
2024/04/02 04:13:21;;;;;;;1.70;0.40;;;;;;;6.82;100.00;98083.44;4973633;28;20035;-60
2024/04/02 04:16:01;;;;;;;2.13;0.50;;;;;;;6.89;100.00;98080.75;4970296;28;20455;-60
2024/04/02 04:18:27;;;;;;;1.25;0.55;;;;;;;6.99;100.00;98083.94;4967557;28;20060;-59
2024/04/02 04:20:55;;;;;;;1.50;0.40;;;;;;;7.08;100.00;98081.94;4966438;28;20026;-59
2024/04/02 04:23:21;;;;;;;0.80;0.43;;;;;;;7.13;100.00;98090.25;4969206;28;20093;-59
2024/04/02 04:25:46;;;;;;;1.13;0.52;;;;;;;7.16;100.00;98092.53;4963154;28;20073;-59
2024/04/02 04:28:12;;;;;;;0.73;0.38;;;;;;;7.20;100.00;98096.47;4963580;28;20081;-59
2024/04/02 04:30:37;;;;;;;1.45;0.45;;;;;;;7.18;100.00;98091.28;4968434;28;20063;-59
2024/04/02 04:33:03;;;;;;;1.15;0.50;;;;;;;7.16;100.00;98105.97;4967779;28;20030;-59
2024/04/02 04:35:32;;;;;;;0.68;0.38;;;;;;;7.17;100.00;98108.44;4964357;28;20026;-59
2024/04/02 04:37:58;;;;;;;;;;;;;;;7.17;100.00;98115.69;4963827;28;20019;-60
2024/04/02 04:40:24;;;;;;;0.70;0.32;;;;;;;7.14;100.00;98106.16;4962836;28;19920;-60
2024/04/02 04:42:49;;;;;;;0.50;0.40;;;;;;;7.05;100.00;98115.44;4971858;28;20031;-60
2024/04/02 04:45:15;;;;;;;1.77;0.40;;;;;;;7.10;100.00;98120.19;4968972;28;20046;-60
2024/04/02 04:47:40;;;;;;;1.25;0.45;;;;;;;7.08;100.00;98122.28;4964127;28;20127;-59
2024/04/02 04:50:06;;;;;;;1.13;0.40;;;;;;;7.12;100.00;98129.72;4973792;28;20122;-61
2024/04/02 04:52:31;;;;;;;1.38;0.60;;;;;;;7.10;100.00;98126.44;4966864;28;20039;-60
2024/04/02 04:54:57;;;;;;;1.23;0.70;;;;;;;7.17;100.00;98127.28;4971841;28;20018;-60
2024/04/02 04:57:22;;;;;;;0.60;0.30;;;;;;;7.21;100.00;98128.56;4961086;28;20019;-57
2024/04/02 04:59:48;;;;;;;0.93;0.60;;;;;;;7.26;100.00;98133.34;4967006;28;20089;-58
2024/04/02 05:02:13;;;;;;;0.43;0.40;;;;;;;7.32;100.00;98126.34;4972585;28;20125;-58
2024/04/02 05:04:38;;;;;;;1.05;0.40;;;;;;;7.38;100.00;98139.81;4964951;28;21189;-58
2024/04/02 05:07:23;;;;;;;0.30;0.17;;;;;;;7.45;100.00;98143.38;4967229;28;20057;-58
2024/04/02 05:09:50;;;;;;;0.68;0.38;;;;;;;7.51;100.00;98141.75;4965010;28;20031;-58
2024/04/02 05:12:15;;;;;;;3.28;0.40;;;;;;;7.52;100.00;98145.25;4962621;28;20027;-58
2024/04/02 05:14:41;;;;;;;2.70;0.30;;;;;;;7.55;100.00;98143.00;4963750;28;20038;-58
2024/04/02 05:17:06;;;;;;;2.78;0.50;;;;;;;7.50;100.00;98145.47;4964067;28;20089;-58
2024/04/02 05:19:32;;;;;;;3.05;0.50;;;;;;;7.51;100.00;98149.00;4963025;28;20023;-58
2024/04/02 05:21:57;;;;;;;1.10;0.60;;;;;;;7.53;100.00;98149.63;4969443;28;20078;-58
2024/04/02 05:24:22;;;;;;;3.58;0.60;;;;;;;7.45;100.00;98156.00;4962474;28;20031;-57
2024/04/02 05:26:48;;;;;;;0.77;0.40;;;;;;;7.49;100.00;98151.03;4957310;28;21127;-58
2024/04/02 05:29:16;;;;;;;0.75;0.60;;;;;;;7.44;100.00;98146.25;4968288;28;20042;-58
2024/04/02 05:31:42;;;;;;;0.63;0.43;;;;;;;7.58;100.00;98158.75;4968939;28;20031;-58
2024/04/02 05:34:08;;;;;;;1.02;0.40;;;;;;;7.74;100.00;98164.84;4964130;28;20081;-58
2024/04/02 05:36:33;;;;;;;0.98;0.40;;;;;;;7.83;100.00;98166.31;4959346;28;20026;-58
2024/04/02 05:38:59;;;;;;;0.70;0.40;;;;;;;7.89;100.00;98173.59;4969516;28;20121;-58
2024/04/02 05:41:24;;;;;;;0.50;0.40;;;;;;;7.93;100.00;98166.75;4967762;28;20027;-58
2024/04/02 05:43:50;;;;;;;0.90;0.70;;;;;;;7.96;100.00;98179.81;4969598;28;20122;-58
2024/04/02 05:46:15;;;;;;;2.95;0.85;;;;;;;8.05;100.00;98173.22;4961489;28;20047;-58
2024/04/02 05:48:41;;;;;;;2.85;1.27;;;;;;;8.06;100.00;98174.06;4963620;28;20062;-58
2024/04/02 05:51:06;;;;;;;1.83;0.77;;;;;;;7.92;100.00;98159.72;4967045;28;20034;-58
2024/04/02 05:53:32;;;;;;;2.55;0.80;;;;;;;8.04;100.00;98182.34;4970611;28;20073;-58
2024/04/02 05:55:59;;;;;;;1.13;0.70;;;;;;;8.01;100.00;98182.75;4970832;28;20069;-58
2024/04/02 05:58:25;;;;;;;0.80;0.40;;;;;;;8.06;100.00;98185.66;4965623;28;20034;-58
2024/04/02 06:01:01;;;;;;;0.63;0.20;;;;;;;8.01;100.00;98192.69;4961469;28;20031;-58
2024/04/02 06:03:27;;;;;;;1.15;0.40;;;;;;;8.13;100.00;98183.81;4963729;28;20398;-59
2024/04/02 06:05:52;;;;;;;0.68;0.30;;;;;;;8.27;100.00;98183.84;4970282;28;20073;-58
2024/04/02 06:08:18;;;;;;;2.33;0.30;;;;;;;8.33;100.00;98175.81;4965261;28;20031;-59
2024/04/02 06:10:43;;;;;;;1.08;0.40;;;;;;;8.29;100.00;98185.31;4966974;28;20042;-58
2024/04/02 06:13:08;;;;;;;0.70;0.30;;;;;;;8.33;100.00;98191.97;4971104;28;20022;-58
2024/04/02 06:15:34;;;;;;;0.68;0.40;;;;;;;8.37;100.00;98194.25;4964765;28;20118;-58
2024/04/02 06:17:59;;;;;;;0.38;0.20;;;;;;;8.43;100.00;98210.44;4965490;28;20059;-58
2024/04/02 06:20:25;;;;;;;0.95;0.40;;;;;;;8.46;100.00;98209.22;4973648;28;20018;-58
2024/04/02 06:22:50;;;;;;;0.35;0.28;;;;;;;8.44;100.00;98205.91;4972080;28;20026;-59
2024/04/02 06:25:16;;;;;;;0.88;0.30;;;;;;;8.40;100.00;98218.97;4971948;28;20063;-58
2024/04/02 06:27:42;;;;;;;2.40;0.60;;;;;;;8.54;100.00;98215.28;4967976;28;20060;-59
2024/04/02 06:30:07;;;;;;;1.02;0.25;;;;;;;8.53;100.00;98237.84;4970840;28;20023;-57
2024/04/02 06:32:33;;;;;;;0.75;0.40;;;;;;;8.60;100.00;98237.06;4974731;28;20340;-57
2024/04/02 06:34:58;;;;;;;1.92;0.30;;;;;;;8.59;100.00;98244.28;4963634;28;20030;-57
2024/04/02 06:37:24;;;;;;;0.88;0.28;;;;;;;8.63;100.00;98245.56;4968889;28;20061;-56
2024/04/02 06:39:49;;;;;;;0.93;0.38;;;;;;;8.68;100.00;98240.38;4964349;28;20054;-57
2024/04/02 06:42:15;;;;;;;1.17;0.50;;;;;;;8.56;100.00;98236.63;4967160;28;20043;-56
2024/04/02 06:44:40;;;;;;;0.88;0.30;;;;;;;8.52;100.00;98246.16;4967621;28;20046;-57
2024/04/02 06:47:05;;;;;;;0.73;0.40;;;;;;;8.69;100.00;98247.41;4962357;28;20035;-57
2024/04/02 06:49:31;;;;;;;0.32;0.30;;;;;;;8.81;100.00;98244.13;4963867;28;20045;-56
2024/04/02 06:51:56;;;;;;;1.05;0.50;;;;;;;8.87;100.00;98243.31;4962101;28;20482;-57
2024/04/02 06:54:22;;;;;;;0.68;0.40;;;;;;;8.86;100.00;98247.06;4971388;28;20026;-57
2024/04/02 06:56:47;;;;;;;0.60;0.30;;;;;;;8.92;100.00;98255.13;4972131;28;20061;-56
2024/04/02 06:59:12;;;;;;;1.58;0.30;;;;;;;8.83;100.00;98256.38;4963555;28;20039;-56
2024/04/02 07:01:38;;;;;;;2.55;0.50;;;;;;;8.68;100.00;98248.47;4971651;28;20114;-57
2024/04/02 07:04:03;;;;;;;1.70;0.40;;;;;;;8.66;100.00;98255.94;4972553;28;20081;-57
2024/04/02 07:06:29;;;;;;;1.90;0.30;;;;;;;8.77;100.00;98257.19;4965993;28;20122;-57
2024/04/02 07:08:55;;;;;;;4.38;0.35;;;;;;;8.90;100.00;98259.06;4964970;28;20514;-57
2024/04/02 07:11:20;;;;;;;0.63;0.47;;;;;;;8.90;100.00;98261.78;4963184;28;20438;-57
2024/04/02 07:13:45;;;;;;;0.93;0.50;;;;;;;8.83;100.00;98264.47;4969125;28;20023;-57
2024/04/02 07:16:11;;;;;;;1.10;0.60;;;;;;;8.91;100.00;98266.97;4967769;28;20073;-56
2024/04/02 07:18:36;;;;;;;0.57;0.30;;;;;;;9.33;100.00;98266.78;4964433;28;20033;-56
2024/04/02 07:21:07;;;;;;;0.70;0.30;;;;;;;9.59;100.00;98271.34;4970967;28;20101;-56
2024/04/02 07:23:33;;;;;;;0.88;0.17;;;;;;;9.83;100.00;98267.94;4971680;28;20069;-56
2024/04/02 07:25:59;;;;;;;1.35;0.20;;;;;;;9.65;100.00;98265.06;4966831;28;20487;-56
2024/04/02 07:28:26;;;;;;;2.30;0.45;;;;;;;10.16;100.00;98271.59;4969947;28;20034;-56
2024/04/02 07:30:52;;;;;;;0.32;0.22;;;;;;;10.85;100.00;98280.84;4971790;28;20077;-56
2024/04/02 07:33:18;;;;;;;1.60;0.47;;;;;;;11.54;100.00;98271.75;4970893;28;20527;-57
2024/04/02 07:35:43;;;;;;;1.30;0.55;;;;;;;11.17;100.00;98279.78;4966739;28;20035;-58
2024/04/02 07:38:10;;;;;;;1.40;0.60;;;;;;;11.34;100.00;98269.25;4967400;28;20039;-56
2024/04/02 07:40:36;;;;;;;2.97;0.35;;;;;;;11.30;100.00;98289.69;4967610;28;20027;-56
2024/04/02 07:43:01;;;;;;;1.95;0.52;;;;;;;11.38;100.00;98291.28;4971698;28;20541;-58
2024/04/02 07:45:27;;;;;;;0.70;0.20;;;;;;;10.83;100.00;98289.19;4970673;28;20127;-57
2024/04/02 07:47:52;;;;;;;0.30;0.15;;;;;;;11.11;100.00;98293.38;4971203;28;20050;-57
2024/04/02 07:50:17;;;;;;;1.40;0.40;;;;;;;11.17;100.00;98300.63;4968265;28;20054;-57
2024/04/02 07:52:43;;;;;;;1.52;0.35;;;;;;;11.45;100.00;98286.66;4962126;28;20074;-57
2024/04/02 07:55:09;;;;;;;1.30;0.20;;;;;;;11.97;100.00;98276.38;4964328;28;20023;-57
2024/04/02 07:57:34;;;;;;;1.33;0.20;;;;;;;12.81;100.00;98287.44;4966308;28;20035;-58
2024/04/02 08:00:00;;;;;;;2.25;0.65;;;;;;;14.20;100.00;98280.72;4968279;28;20462;-57
2024/04/02 08:02:25;;;;;;;4.60;0.50;;;;;;;15.96;100.00;98279.84;4966049;28;20034;-57
2024/04/02 08:04:52;;;;;;;1.42;0.43;;;;;;;16.75;100.00;98273.19;4969118;28;21221;-57
2024/04/02 08:07:18;;;;;;;6.75;0.70;;;;;;;15.07;100.00;98280.56;4965170;28;20038;-57
2024/04/02 08:09:47;;;;;;;4.10;0.55;;;;;;;14.91;100.00;98289.53;4971699;28;20498;-58
2024/04/02 08:12:12;;;;;;;2.30;0.70;;;;;;;14.48;100.00;98296.28;4970770;28;20026;-57
2024/04/02 08:14:38;;;;;;;3.65;0.50;;;;;;;14.07;100.00;98308.19;4968159;28;20386;-58
2024/04/02 08:17:04;;;;;;;12.52;0.90;;;;;;;13.01;100.00;98306.13;4961763;28;20059;-56
2024/04/02 08:19:29;;;;;;;7.15;0.90;;;;;;;11.73;100.00;98301.59;4967748;28;20106;-58
2024/04/02 08:21:55;;;;;;;5.65;0.98;;;;;;;11.37;100.00;98320.25;4967711;28;20418;-57
2024/04/02 08:24:25;;;;;;;4.25;0.57;;;;;;;10.94;100.00;98333.66;4971148;28;20141;-58
2024/04/02 08:26:50;;;;;;;4.70;0.80;;;;;;;11.15;100.00;98327.91;4963955;28;20566;-57
2024/04/02 08:29:16;;;;;;;6.20;0.57;;;;;;;11.13;100.00;98331.88;4968396;28;20068;-57
2024/04/02 08:31:41;;;;;;;5.50;0.80;;;;;;;10.66;100.00;98332.16;4960412;28;20039;-57
2024/04/02 08:34:07;;;;;;;5.55;0.60;;;;;;;11.44;100.00;98336.44;4970532;28;20061;-56
2024/04/02 08:36:32;;;;;;;8.27;0.90;;;;;;;11.55;100.00;98332.19;4967498;28;20066;-55
2024/04/02 08:38:57;;;;;;;3.53;0.65;;;;;;;11.93;100.00;98334.81;4966476;28;21208;-54
2024/04/02 08:41:26;;;;;;;5.72;0.70;;;;;;;11.90;100.00;98343.38;4965698;28;20033;-56
2024/04/02 08:43:57;;;;;;;3.92;0.80;;;;;;;12.56;100.00;98346.44;4982184;28;20458;-56
2024/04/02 08:46:24;;;;;;;2.30;0.50;;;;;;;12.39;100.00;98343.47;4968529;28;20387;-56
2024/04/02 08:48:52;;;;;;;8.43;1.17;;;;;;;12.81;100.00;98347.16;4971110;28;20034;-56
2024/04/02 08:51:19;;;;;;;3.60;0.70;;;;;;;12.97;100.00;98329.41;4964070;28;20483;-56
2024/04/02 08:53:44;;;;;;;5.05;0.55;;;;;;;12.02;100.00;98343.47;4969986;28;20447;-56
2024/04/02 08:56:11;;;;;;;5.47;0.75;;;;;;;11.74;100.00;98360.19;4962351;28;20085;-56
2024/04/02 08:58:38;;;;;;;6.20;1.20;;;;;;;11.65;100.00;98362.31;4967822;28;20395;-57
2024/04/02 09:01:04;;;;;;;2.55;0.50;;;;;;;12.02;100.00;98359.72;4970794;28;20023;-56
2024/04/02 09:03:30;;;;;;;3.70;0.40;;;;;;;12.21;100.00;98255.66;5005264;23;20050;-82
2024/04/02 09:05:58;;;;;;;2.53;0.55;;;;;;;12.86;100.00;98294.88;4965861;28;20023;-84
2024/04/02 09:08:27;;;;;;;4.40;0.37;;;;;;;11.79;100.00;98314.28;4973121;28;20026;-85
2024/04/02 09:10:52;;;;;;;2.80;0.40;;;;;;;13.91;100.00;98358.66;4986616;28;20328;-85
2024/04/02 09:13:17;;;;;;;2.17;0.50;;;;;;;17.25;100.00;98313.06;4966934;28;20284;-75
2024/04/02 09:15:44;;;;;;;2.60;0.50;;;;;;;20.50;80.02;98348.53;4983136;28;20045;-73
2024/04/02 09:18:09;;;;;;;1.55;0.32;;;;;;;21.34;70.54;98345.16;4964252;28;20221;-74
2024/04/02 09:20:36;;;;;;;3.70;0.68;;;;;;;21.34;66.08;98343.22;4981482;28;20105;-74
2024/04/02 09:23:01;;;;;;;3.28;0.77;;;;;;;21.24;67.71;98346.84;4968283;28;20018;-75
2024/04/02 09:25:27;;;;;;;4.82;0.93;;;;;;;20.86;65.83;98353.13;4981301;28;20026;-74
2024/04/02 09:27:54;;;;;;;2.38;0.50;;;;;;;21.82;65.24;98340.69;4982483;28;20201;-75
2024/04/02 09:30:22;;;;;;;4.88;0.80;;;;;;;20.33;66.21;98337.84;4963445;28;20030;-75
2024/04/02 09:32:48;;;;;;;4.00;0.50;;;;;;;18.33;68.94;98335.81;4984438;28;20026;-74
2024/04/02 09:35:27;;;;;;;5.03;0.40;;;;;;;21.11;66.00;98324.66;4962532;28;20097;-74
2024/04/02 09:37:52;;;;;;;5.22;0.63;;;;;;;19.99;64.48;98320.31;4978710;28;20473;-75
2024/04/02 09:40:19;;;;;;;2.00;0.60;;;;;;;17.53;69.10;98324.81;4963119;28;20225;-76
2024/04/02 09:42:47;;;;;;;5.70;0.80;;;;;;;17.59;74.25;98329.25;4966612;28;20023;-76
2024/04/02 09:45:13;;;;;;;3.83;0.60;;;;;;;16.97;75.52;98319.59;4968454;28;20732;-75
2024/04/02 09:47:45;;;;;;;2.30;0.60;;;;;;;17.14;76.26;98311.31;4966928;28;20110;-78
2024/04/02 09:50:10;;;;;;;3.30;0.45;;;;;;;17.61;71.55;98332.53;4987783;28;20125;-75
2024/04/02 09:52:36;;;;;;;2.90;0.60;;;;;;;17.34;75.54;98342.66;4969629;28;20018;-73
2024/04/02 09:55:02;;;;;;;7.15;0.70;;;;;;;15.39;80.40;98352.78;4966460;28;20623;-74
2024/04/02 09:57:28;;;;;;;4.15;0.40;;;;;;;15.08;81.06;98333.16;4968778;28;20062;-75
2024/04/02 09:59:53;;;;;;;3.72;0.43;;;;;;;17.70;73.35;98341.09;4970413;28;20034;-74
2024/04/02 10:02:22;;;;;;;1.73;0.47;;;;;;;16.92;72.46;98337.84;4969839;28;20038;-74
2024/04/02 10:04:50;;;;;;;1.50;0.50;;;;;;;15.90;73.75;98348.19;4971766;28;20321;-75
2024/04/02 10:07:23;;;;;;;2.58;0.57;;;;;;;14.96;77.34;98341.38;4969042;28;20027;-75
2024/04/02 10:09:59;;;;;;;3.83;1.08;;;;;;;14.54;81.95;98365.28;4971922;28;20030;-75
2024/04/02 10:12:32;;;;;;;4.25;0.40;;;;;;;13.95;83.60;98346.28;4967960;28;20097;-74
2024/04/02 10:15:09;;;;;;;1.75;0.50;;;;;;;13.40;86.35;98360.16;4970966;28;20026;-75
2024/04/02 10:17:34;;;;;;;2.90;0.40;;;;;;;13.49;88.77;98345.16;4973278;28;20042;-74
2024/04/02 10:20:00;;;;;;;3.40;0.90;;;;;;;13.71;89.68;98348.97;4969219;28;20213;-75
2024/04/02 10:22:27;;;;;;;4.13;0.50;;;;;;;13.50;91.07;98358.50;4969698;28;20321;-75
2024/04/02 10:25:25;;;;;;;4.38;0.40;;;;;;;13.24;90.16;98365.16;4965448;28;20026;-76
2024/04/02 10:27:53;;;;;;;7.40;0.75;;;;;;;13.22;88.21;98342.81;4931366;28;20038;-74
2024/04/02 10:30:21;;;;;;;3.28;0.60;;;;;;;15.21;83.71;98335.56;4966961;28;20222;-75
2024/04/02 10:32:47;;;;;;;3.22;0.65;;;;;;;15.37;82.14;98352.19;4968244;28;20027;-75
2024/04/02 10:35:21;;;;;;;3.15;0.50;;;;;;;16.14;78.90;98352.41;4966451;28;20057;-75
2024/04/02 10:37:50;;;;;;;2.78;0.50;;;;;;;18.98;72.77;98336.41;4965402;28;20026;-75
2024/04/02 10:40:16;;;;;;;2.05;0.55;;;;;;;20.33;66.69;98337.00;4968195;28;20065;-74
2024/04/02 10:42:46;;;;;;;3.30;0.50;;;;;;;19.05;63.39;98342.47;4968140;28;20054;-73
2024/04/02 10:45:12;;;;;;;6.20;0.98;;;;;;;18.01;65.32;98336.72;4965955;28;20026;-74
2024/04/02 10:47:45;;;;;;;3.47;0.40;;;;;;;16.66;67.23;98342.97;4967908;28;20057;-75
2024/04/02 10:50:10;;;;;;;2.55;0.57;;;;;;;16.78;70.21;98332.78;4972380;28;20022;-75
2024/04/02 10:52:36;;;;;;;3.70;0.52;;;;;;;16.63;69.69;98340.75;4969712;28;20340;-74
2024/04/02 10:55:03;;;;;;;2.65;0.65;;;;;;;15.28;72.11;98327.25;4967553;28;20023;-74
2024/04/02 10:57:30;;;;;;;2.40;0.50;;;;;;;15.00;74.16;98336.25;4967939;28;20322;-75
2024/04/02 11:00:00;;;;;;;2.50;0.50;;;;;;;15.30;73.86;98335.97;4971269;28;20073;-75
2024/04/02 11:02:26;;;;;;;4.53;0.55;;;;;;;14.55;75.76;98329.66;4968581;28;20030;-75
2024/04/02 11:04:51;;;;;;;2.60;0.50;;;;;;;15.96;76.62;98345.31;4969126;28;20018;-75
2024/04/02 11:07:17;;;;;;;3.40;0.47;;;;;;;16.07;68.04;98327.19;4968947;28;20110;-75
2024/04/02 11:09:43;;;;;;;0.90;0.30;;;;;;;18.57;65.80;98327.97;4974577;28;20037;-74
2024/04/02 11:12:08;;;;;;;4.15;0.45;;;;;;;20.52;59.23;98324.34;4967946;28;20034;-74
2024/04/02 11:14:35;;;;;;;1.83;0.43;;;;;;;24.34;54.71;98324.38;4970627;28;20225;-74
2024/04/02 11:17:00;;;;;;;4.78;0.55;;;;;;;23.88;52.99;98311.41;4971365;28;20039;-74
2024/04/02 11:19:26;;;;;;;2.35;0.30;;;;;;;23.39;50.13;98311.59;4974947;28;20029;-74
2024/04/02 11:27:25;;;;;;;2.53;0.40;;;;;;;17.53;58.43;98319.34;4982899;28;20037;-73
2024/04/02 11:29:52;;;;;;;5.55;0.60;;;;;;;17.24;61.93;98338.78;4966776;28;20038;-73
2024/04/02 11:32:18;;;;;;;2.30;0.50;;;;;;;17.03;64.79;98334.19;4986429;28;20252;-74